createdAt,value
2023-04-12T00:00:29.606Z,1001.70
2023-04-12T00:01:29.593Z,1001.78
2023-04-12T00:02:29.699Z,1001.66
2023-04-12T00:03:29.642Z,1001.66
2023-04-12T00:04:29.725Z,1001.65
2023-04-12T00:05:29.518Z,1001.62
2023-04-12T00:06:29.490Z,1001.56
2023-04-12T00:07:29.492Z,1001.64
2023-04-12T00:08:29.479Z,1001.52
2023-04-12T00:09:29.479Z,1001.59
2023-04-12T00:10:29.441Z,1001.44
2023-04-12T00:11:29.454Z,1001.48
2023-04-12T00:12:29.427Z,1001.42
2023-04-12T00:13:29.457Z,1001.47
2023-04-12T00:14:29.422Z,1001.41
2023-04-12T00:15:29.430Z,1001.40
2023-04-12T00:16:29.509Z,1001.36
2023-04-12T00:17:29.413Z,1001.34
2023-04-12T00:18:29.388Z,1001.32
2023-04-12T00:19:29.389Z,1001.24
2023-04-12T00:20:29.394Z,1001.26
2023-04-12T00:21:29.334Z,1001.25
2023-04-12T00:22:29.323Z,1001.23
2023-04-12T00:23:29.322Z,1001.25
2023-04-12T00:24:29.283Z,1001.23
2023-04-12T00:25:29.284Z,1001.20
2023-04-12T00:26:29.349Z,1001.20
2023-04-12T00:27:29.281Z,1001.14
2023-04-12T00:28:29.277Z,1001.16
2023-04-12T00:29:29.247Z,1001.19
2023-04-12T00:30:29.283Z,1001.17
2023-04-12T00:31:29.265Z,1001.14
2023-04-12T00:32:29.262Z,1001.18
2023-04-12T00:33:29.192Z,1001.11
2023-04-12T00:34:29.194Z,1001.09
2023-04-12T00:35:29.220Z,1001.05
2023-04-12T00:36:29.156Z,1001.04
2023-04-12T00:37:29.154Z,1000.93
2023-04-12T00:38:29.151Z,1000.94
2023-04-12T00:39:29.136Z,1000.87
2023-04-12T00:40:29.146Z,1000.88
2023-04-12T00:41:29.129Z,1000.77
2023-04-12T00:42:29.102Z,1000.91
2023-04-12T00:43:29.090Z,1000.82
2023-04-12T00:44:29.087Z,1000.77
2023-04-12T00:45:29.135Z,1000.76
2023-04-12T00:46:29.102Z,1000.73
2023-04-12T00:47:29.057Z,1000.69
2023-04-12T00:48:29.032Z,1000.62
2023-04-12T00:49:29.042Z,1000.68
2023-04-12T00:50:29.032Z,1000.60
2023-04-12T00:51:29.004Z,1000.63
2023-04-12T00:52:28.982Z,1000.62
2023-04-12T00:53:28.980Z,1000.56
2023-04-12T00:54:29.044Z,1000.54
2023-04-12T00:55:28.976Z,1000.49
2023-04-12T00:56:28.969Z,1000.51
2023-04-12T00:57:28.934Z,1000.44
2023-04-12T00:58:28.968Z,1000.47
2023-04-12T00:59:29.028Z,1000.44
2023-04-12T01:00:28.920Z,1000.44
2023-04-12T01:01:28.909Z,1000.39
2023-04-12T01:02:29.093Z,1000.39
2023-04-12T01:03:29.002Z,1000.42
2023-04-12T01:04:28.888Z,1000.42
2023-04-12T01:05:28.850Z,1000.40
2023-04-12T01:06:28.827Z,1000.34
2023-04-12T01:07:28.825Z,1000.33
2023-04-12T01:08:28.805Z,1000.29
2023-04-12T01:09:28.805Z,1000.28
2023-04-12T01:10:28.794Z,1000.23
2023-04-12T01:11:28.786Z,1000.17
2023-04-12T01:12:28.763Z,1000.22
2023-04-12T01:13:28.753Z,1000.14
2023-04-12T01:14:28.794Z,1000.17
2023-04-12T01:15:28.738Z,1000.14
2023-04-12T01:16:28.751Z,1000.12
2023-04-12T01:17:28.755Z,1000.06
2023-04-12T01:18:28.848Z,1000.10
2023-04-12T01:19:28.702Z,1000.11
2023-04-12T01:20:28.683Z,1000.08
2023-04-12T01:21:28.667Z,1000.05
2023-04-12T01:22:28.656Z,1000.02
2023-04-12T01:23:28.648Z,999.98
2023-04-12T01:24:28.641Z,999.98
2023-04-12T01:25:28.634Z,999.97
2023-04-12T01:26:28.676Z,999.95
2023-04-12T01:27:28.610Z,999.92
2023-04-12T01:28:28.620Z,999.91
2023-04-12T01:29:28.629Z,999.94
2023-04-12T01:30:28.583Z,999.93
2023-04-12T01:31:28.586Z,999.89
2023-04-12T01:32:28.554Z,999.83
2023-04-12T01:33:28.546Z,999.81
2023-04-12T01:34:28.700Z,999.76
2023-04-12T01:35:28.553Z,999.79
2023-04-12T01:36:28.588Z,999.74
2023-04-12T01:37:28.486Z,999.72
2023-04-12T01:38:28.522Z,999.70
2023-04-12T01:39:28.476Z,999.63
2023-04-12T01:40:28.464Z,999.66
2023-04-12T01:41:28.444Z,999.54
2023-04-12T01:42:28.444Z,999.55
2023-04-12T01:43:28.424Z,999.57
2023-04-12T01:44:28.446Z,999.55
2023-04-12T01:45:28.448Z,999.57
2023-04-12T01:46:28.416Z,999.52
2023-04-12T01:47:28.514Z,999.47
2023-04-12T01:48:28.379Z,999.46
2023-04-12T01:49:28.419Z,999.47
2023-04-12T01:50:28.348Z,999.42
2023-04-12T01:51:28.340Z,999.33
2023-04-12T01:52:28.349Z,999.31
2023-04-12T01:53:28.321Z,999.25
2023-04-12T01:54:28.342Z,999.22
2023-04-12T01:55:28.314Z,999.20
2023-04-12T01:56:28.289Z,999.16
2023-04-12T01:57:28.265Z,999.16
2023-04-12T01:58:28.270Z,999.07
2023-04-12T01:59:28.271Z,999.11
2023-04-12T02:00:28.261Z,999.03
2023-04-12T02:01:28.236Z,998.99
2023-04-12T02:02:28.286Z,998.99
2023-04-12T02:03:28.249Z,999.00
2023-04-12T02:04:28.210Z,998.98
2023-04-12T02:05:28.239Z,999.02
2023-04-12T02:06:28.188Z,998.99
2023-04-12T02:07:28.165Z,998.97
2023-04-12T02:08:28.155Z,998.89
2023-04-12T02:09:28.165Z,998.90
2023-04-12T02:10:28.133Z,998.92
2023-04-12T02:11:28.122Z,998.96
2023-04-12T02:12:28.124Z,998.90
2023-04-12T02:13:28.095Z,998.87
2023-04-12T02:14:28.095Z,998.83
2023-04-12T02:15:28.080Z,998.79
2023-04-12T02:16:28.082Z,998.72
2023-04-12T02:17:28.084Z,998.74
2023-04-12T02:18:28.055Z,998.76
2023-04-12T02:19:28.044Z,998.75
2023-04-12T02:20:28.014Z,998.72
2023-04-12T02:21:28.098Z,998.70
2023-04-12T02:22:28.005Z,998.65
2023-04-12T02:23:28.046Z,998.63
2023-04-12T02:24:27.976Z,998.65
2023-04-12T02:25:27.961Z,998.61
2023-04-12T02:26:27.970Z,998.59
2023-04-12T02:27:27.946Z,998.58
2023-04-12T02:28:27.932Z,998.55
2023-04-12T02:29:27.993Z,998.58
2023-04-12T02:30:27.944Z,998.62
2023-04-12T02:31:27.921Z,998.51
2023-04-12T02:32:27.912Z,998.53
2023-04-12T02:33:27.878Z,998.49
2023-04-12T02:34:27.887Z,998.48
2023-04-12T02:35:27.865Z,998.48
2023-04-12T02:36:27.834Z,998.52
2023-04-12T02:37:27.838Z,998.46
2023-04-12T02:38:27.819Z,998.43
2023-04-12T02:39:27.827Z,998.42
2023-04-12T02:40:27.883Z,998.45
2023-04-12T02:41:27.791Z,998.38
2023-04-12T02:42:27.807Z,998.36
2023-04-12T02:43:27.763Z,998.31
2023-04-12T02:44:27.757Z,998.29
2023-04-12T02:45:27.738Z,998.23
2023-04-12T02:46:27.808Z,998.17
2023-04-12T02:47:27.747Z,998.14
2023-04-12T02:48:27.733Z,998.11
2023-04-12T02:49:27.700Z,998.07
2023-04-12T02:50:27.686Z,998.04
2023-04-12T02:51:27.703Z,997.99
2023-04-12T02:52:27.677Z,997.97
2023-04-12T02:53:27.658Z,997.93
2023-04-12T02:54:27.651Z,997.89
2023-04-12T02:55:27.633Z,997.83
2023-04-12T02:56:27.626Z,997.81
2023-04-12T02:57:27.634Z,997.73
2023-04-12T02:58:27.642Z,997.70
2023-04-12T02:59:27.606Z,997.71
2023-04-12T03:00:27.628Z,997.69
2023-04-12T03:01:27.609Z,997.72
2023-04-12T03:02:27.652Z,997.67
2023-04-12T03:03:27.822Z,997.65
2023-04-12T03:04:27.663Z,997.65
2023-04-12T03:05:27.537Z,997.66
2023-04-12T03:06:27.505Z,997.60
2023-04-12T03:07:27.534Z,997.58
2023-04-12T03:08:27.528Z,997.56
2023-04-12T03:09:27.489Z,997.54
2023-04-12T03:10:27.522Z,997.47
2023-04-12T03:11:27.463Z,997.45
2023-04-12T03:12:27.512Z,997.41
2023-04-12T03:13:27.440Z,997.36
2023-04-12T03:14:27.527Z,997.39
2023-04-12T03:15:27.499Z,997.35
2023-04-12T03:16:27.398Z,997.30
2023-04-12T03:17:27.444Z,997.32
2023-04-12T03:18:27.404Z,997.26
2023-04-12T03:19:27.462Z,997.25
2023-04-12T03:20:27.352Z,997.29
2023-04-12T03:21:27.352Z,997.21
2023-04-12T03:22:27.347Z,997.22
2023-04-12T03:23:27.323Z,997.18
2023-04-12T03:24:27.348Z,997.12
2023-04-12T03:25:27.321Z,997.05
2023-04-12T03:26:27.285Z,996.99
2023-04-12T03:27:27.289Z,997.03
2023-04-12T03:28:27.270Z,996.99
2023-04-12T03:29:27.282Z,996.98
2023-04-12T03:30:27.240Z,996.94
2023-04-12T03:31:27.356Z,996.94
2023-04-12T03:32:27.309Z,996.93
2023-04-12T03:33:27.218Z,996.84
2023-04-12T03:34:27.227Z,996.80
2023-04-12T03:35:27.311Z,996.77
2023-04-12T03:36:27.192Z,996.74
2023-04-12T03:37:27.234Z,996.73
2023-04-12T03:38:27.156Z,996.66
2023-04-12T03:39:27.157Z,996.62
2023-04-12T03:40:27.156Z,996.62
2023-04-12T03:41:27.128Z,996.61
2023-04-12T03:42:32.899Z,996.59
2023-04-12T03:43:28.106Z,996.57
2023-04-12T03:44:27.145Z,996.53
2023-04-12T03:45:27.092Z,996.53
2023-04-12T03:46:27.095Z,996.52
2023-04-12T03:47:27.152Z,996.48
2023-04-12T03:48:27.061Z,996.41
2023-04-12T03:49:27.059Z,996.40
2023-04-12T03:50:27.023Z,996.32
2023-04-12T03:51:27.122Z,996.32
2023-04-12T03:52:27.011Z,996.36
2023-04-12T03:53:27.007Z,996.32
2023-04-12T03:54:26.999Z,996.28
2023-04-12T03:55:26.980Z,996.25
2023-04-12T03:56:26.966Z,996.33
2023-04-12T03:57:27.053Z,996.29
2023-04-12T03:58:26.941Z,996.23
2023-04-12T03:59:26.945Z,996.25
2023-04-12T04:00:26.918Z,996.19
2023-04-12T04:01:26.942Z,996.18
2023-04-12T04:02:26.995Z,996.13
2023-04-12T04:03:27.222Z,996.04
2023-04-12T04:04:27.094Z,995.97
2023-04-12T04:05:26.869Z,995.96
2023-04-12T04:06:26.862Z,996.01
2023-04-12T04:07:26.846Z,995.94
2023-04-12T04:08:26.856Z,995.96
2023-04-12T04:09:26.931Z,995.85
2023-04-12T04:10:26.818Z,995.82
2023-04-12T04:11:26.868Z,995.84
2023-04-12T04:12:26.813Z,995.76
2023-04-12T04:13:26.809Z,995.77
2023-04-12T04:14:26.793Z,995.71
2023-04-12T04:15:26.743Z,995.72
2023-04-12T04:16:26.815Z,995.72
2023-04-12T04:17:26.868Z,995.70
2023-04-12T04:18:26.756Z,995.72
2023-04-12T04:19:26.746Z,995.68
2023-04-12T04:20:27.879Z,995.69
2023-04-12T04:21:26.696Z,995.65
2023-04-12T04:22:26.701Z,995.61
2023-04-12T04:23:26.689Z,995.58
2023-04-12T04:24:26.658Z,995.56
2023-04-12T04:25:26.658Z,995.52
2023-04-12T04:26:26.638Z,995.50
2023-04-12T04:27:26.619Z,995.46
2023-04-12T04:28:26.634Z,995.44
2023-04-12T04:29:26.605Z,995.45
2023-04-12T04:30:26.607Z,995.45
2023-04-12T04:31:26.596Z,995.45
2023-04-12T04:32:26.615Z,995.43
2023-04-12T04:33:26.571Z,995.41
2023-04-12T04:34:26.561Z,995.36
2023-04-12T04:35:26.621Z,995.43
2023-04-12T04:36:26.554Z,995.37
2023-04-12T04:37:26.519Z,995.38
2023-04-12T04:38:26.543Z,995.42
2023-04-12T04:39:26.496Z,995.31
2023-04-12T04:40:26.520Z,995.30
2023-04-12T04:41:26.489Z,995.24
2023-04-12T04:42:26.483Z,995.24
2023-04-12T04:43:26.789Z,995.17
2023-04-12T04:44:26.457Z,995.17
2023-04-12T04:45:26.641Z,995.22
2023-04-12T04:46:26.428Z,995.26
2023-04-12T04:47:26.440Z,995.24
2023-04-12T04:48:26.465Z,995.18
2023-04-12T04:49:26.389Z,995.30
2023-04-12T04:50:26.374Z,995.24
2023-04-12T04:51:26.417Z,995.19
2023-04-12T04:52:26.402Z,995.21
2023-04-12T04:53:26.390Z,995.14
2023-04-12T04:54:26.365Z,995.18
2023-04-12T04:55:26.337Z,995.20
2023-04-12T04:56:26.366Z,995.19
2023-04-12T04:57:26.295Z,995.11
2023-04-12T04:58:26.304Z,995.08
2023-04-12T04:59:26.276Z,995.05
2023-04-12T05:00:26.286Z,995.16
2023-04-12T05:01:26.357Z,995.15
2023-04-12T05:02:26.360Z,995.09
2023-04-12T05:03:28.821Z,995.08
2023-04-12T05:04:26.316Z,995.04
2023-04-12T05:05:26.293Z,995.08
2023-04-12T05:06:26.393Z,995.06
2023-04-12T05:07:30.233Z,995.07
2023-04-12T05:08:26.687Z,995.00
2023-04-12T05:09:27.195Z,995.03
2023-04-12T05:10:26.175Z,994.96
2023-04-12T05:11:26.171Z,995.01
2023-04-12T05:12:26.131Z,994.98
2023-04-12T05:13:26.166Z,994.95
2023-04-12T05:14:37.275Z,994.94
2023-04-12T05:15:27.100Z,994.97
2023-04-12T05:16:26.178Z,994.95
2023-04-12T05:17:26.160Z,994.85
2023-04-12T05:18:26.111Z,994.91
2023-04-12T05:19:26.058Z,994.91
2023-04-12T05:20:26.042Z,994.88
2023-04-12T05:21:26.058Z,994.83
2023-04-12T05:22:26.030Z,994.85
2023-04-12T05:23:26.271Z,994.80
2023-04-12T05:24:26.127Z,994.81
2023-04-12T05:25:26.040Z,994.77
2023-04-12T05:26:26.011Z,994.78
2023-04-12T05:27:25.965Z,994.71
2023-04-12T05:28:25.971Z,994.73
2023-04-12T05:29:25.953Z,994.74
2023-04-12T05:30:25.961Z,994.73
2023-04-12T05:31:25.982Z,994.69
2023-04-12T05:32:25.930Z,994.67
2023-04-12T05:33:25.912Z,994.66
2023-04-12T05:34:25.891Z,994.64
2023-04-12T05:35:25.939Z,994.55
2023-04-12T05:36:26.094Z,994.55
2023-04-12T05:37:26.495Z,994.60
2023-04-12T05:38:25.859Z,994.53
2023-04-12T05:39:25.911Z,994.52
2023-04-12T05:40:25.955Z,994.45
2023-04-12T05:41:25.843Z,994.46
2023-04-12T05:42:25.802Z,994.48
2023-04-12T05:43:25.829Z,994.45
2023-04-12T05:44:25.783Z,994.41
2023-04-12T05:45:25.808Z,994.37
2023-04-12T05:46:25.851Z,994.39
2023-04-12T05:47:25.815Z,994.36
2023-04-12T05:48:25.776Z,994.35
2023-04-12T05:49:25.749Z,994.38
2023-04-12T05:50:25.721Z,994.32
2023-04-12T05:51:37.844Z,994.35
2023-04-12T05:52:26.696Z,994.36
2023-04-12T05:53:25.720Z,994.35
2023-04-12T05:54:25.681Z,994.34
2023-04-12T05:55:25.699Z,994.34
2023-04-12T05:56:25.655Z,994.36
2023-04-12T05:58:36.898Z,994.28
2023-04-12T05:59:36.834Z,994.31
2023-04-12T06:00:36.792Z,994.29
2023-04-12T06:01:36.817Z,994.31
2023-04-12T06:02:36.874Z,994.25
2023-04-12T06:03:36.850Z,994.34
2023-04-12T06:04:49.483Z,994.26
2023-04-12T06:05:37.847Z,994.26
2023-04-12T06:06:36.709Z,994.26
2023-04-12T06:07:36.693Z,994.19
2023-04-12T06:08:36.749Z,994.22
2023-04-12T06:09:36.659Z,994.17
2023-04-12T06:10:36.664Z,994.21
2023-04-12T06:11:36.644Z,994.17
2023-04-12T06:12:36.656Z,994.19
2023-04-12T06:13:36.714Z,994.18
2023-04-12T06:14:36.675Z,994.15
2023-04-12T06:15:36.617Z,994.14
2023-04-12T06:16:36.659Z,994.13
2023-04-12T06:17:36.696Z,994.12
2023-04-12T06:18:36.589Z,994.13
2023-04-12T06:19:36.591Z,994.11
2023-04-12T06:20:36.576Z,994.09
2023-04-12T06:21:36.545Z,994.05
2023-04-12T06:22:36.545Z,994.06
2023-04-12T06:23:36.693Z,994.03
2023-04-12T06:24:36.594Z,993.98
2023-04-12T06:25:36.714Z,994.01
2023-04-12T06:26:39.761Z,993.99
2023-04-12T06:27:36.496Z,993.96
2023-04-12T06:28:36.538Z,993.97
2023-04-12T06:29:36.461Z,993.91
2023-04-12T06:30:36.480Z,993.93
2023-04-12T06:31:36.505Z,993.92
2023-04-12T06:32:36.529Z,993.91
2023-04-12T06:33:36.410Z,993.93
2023-04-12T06:34:36.411Z,993.90
2023-04-12T06:35:36.418Z,993.89
2023-04-12T06:36:36.380Z,993.90
2023-04-12T06:37:36.445Z,993.84
2023-04-12T06:38:37.179Z,993.87
2023-04-12T06:39:36.340Z,993.82
2023-04-12T06:40:36.352Z,993.79
2023-04-12T06:41:36.320Z,993.79
2023-04-12T06:42:36.299Z,993.77
2023-04-12T06:43:36.321Z,993.72
2023-04-12T06:44:36.282Z,993.72
2023-04-12T06:45:36.288Z,993.72
2023-04-12T06:46:36.304Z,993.72
2023-04-12T06:47:36.288Z,993.74
2023-04-12T06:48:36.256Z,993.71
2023-04-12T06:49:36.274Z,993.67
2023-04-12T06:50:36.218Z,993.61
2023-04-12T06:51:36.200Z,993.64
2023-04-12T06:52:36.262Z,993.55
2023-04-12T06:53:36.191Z,993.51
2023-04-12T06:54:36.177Z,993.52
2023-04-12T06:55:36.197Z,993.45
2023-04-12T06:56:36.210Z,993.40
2023-04-12T06:57:36.128Z,993.45
2023-04-12T06:58:36.164Z,993.43
2023-04-12T06:59:36.105Z,993.38
2023-04-12T07:00:36.120Z,993.42
2023-04-12T07:01:36.086Z,993.34
2023-04-12T07:02:36.235Z,993.33
2023-04-12T07:03:36.491Z,993.34
2023-04-12T07:04:36.215Z,993.29
2023-04-12T07:05:36.086Z,993.31
2023-04-12T07:06:36.178Z,993.26
2023-04-12T07:07:36.054Z,993.22
2023-04-12T07:08:36.102Z,993.26
2023-04-12T07:09:36.006Z,993.32
2023-04-12T07:10:36.018Z,993.31
2023-04-12T07:11:36.141Z,993.23
2023-04-12T07:12:35.970Z,993.21
2023-04-12T07:13:36.018Z,993.17
2023-04-12T07:14:35.955Z,993.15
2023-04-12T07:15:35.936Z,993.15
2023-04-12T07:16:36.077Z,993.12
2023-04-12T07:17:35.938Z,993.13
2023-04-12T07:18:35.962Z,993.15
2023-04-12T07:19:35.903Z,993.08
2023-04-12T07:20:35.881Z,993.10
2023-04-12T07:21:35.863Z,993.14
2023-04-12T07:22:35.863Z,993.08
2023-04-12T07:23:35.870Z,993.04
2023-04-12T07:24:35.867Z,992.97
2023-04-12T07:25:35.858Z,992.96
2023-04-12T07:26:35.846Z,992.93
2023-04-12T07:27:35.824Z,992.95
2023-04-12T07:28:35.819Z,992.92
2023-04-12T07:29:35.789Z,992.89
2023-04-12T07:30:35.785Z,992.85
2023-04-12T07:31:35.804Z,992.85
2023-04-12T07:32:35.859Z,992.84
2023-04-12T07:33:36.075Z,992.85
2023-04-12T07:34:35.796Z,992.80
2023-04-12T07:35:35.776Z,992.79
2023-04-12T07:36:35.714Z,992.70
2023-04-12T07:37:35.726Z,992.66
2023-04-12T07:38:35.730Z,992.63
2023-04-12T07:39:35.722Z,992.62
2023-04-12T07:40:35.668Z,992.62
2023-04-12T07:41:35.655Z,992.66
2023-04-12T07:42:35.813Z,992.58
2023-04-12T07:43:35.667Z,992.59
2023-04-12T07:44:38.500Z,992.66
2023-04-12T07:45:35.655Z,992.52
2023-04-12T07:46:35.639Z,992.52
2023-04-12T07:47:35.642Z,992.47
2023-04-12T07:48:35.588Z,992.44
2023-04-12T07:49:35.570Z,992.50
2023-04-12T07:50:35.560Z,992.49
2023-04-12T07:51:35.538Z,992.47
2023-04-12T07:52:35.596Z,992.44
2023-04-12T07:53:35.534Z,992.41
2023-04-12T07:54:35.544Z,992.44
2023-04-12T07:55:35.520Z,992.41
2023-04-12T07:56:35.515Z,992.43
2023-04-12T07:57:35.472Z,992.46
2023-04-12T07:58:35.619Z,992.44
2023-04-12T07:59:35.462Z,992.45
2023-04-12T08:00:35.474Z,992.42
2023-04-12T08:01:35.443Z,992.45
2023-04-12T08:02:35.568Z,992.43
2023-04-12T08:03:35.592Z,992.41
2023-04-12T08:04:35.465Z,992.43
2023-04-12T08:05:35.456Z,992.48
2023-04-12T08:06:35.376Z,992.44
2023-04-12T08:07:35.391Z,992.41
2023-04-12T08:08:35.368Z,992.42
2023-04-12T08:09:35.360Z,992.43
2023-04-12T08:10:35.346Z,992.37
2023-04-12T08:11:35.361Z,992.39
2023-04-12T08:12:35.317Z,992.39
2023-04-12T08:13:35.347Z,992.40
2023-04-12T08:14:35.339Z,992.36
2023-04-12T08:15:35.350Z,992.35
2023-04-12T08:16:35.268Z,992.35
2023-04-12T08:17:35.283Z,992.28
2023-04-12T08:18:35.359Z,992.29
2023-04-12T08:19:35.286Z,992.34
2023-04-12T08:20:35.301Z,992.40
2023-04-12T08:21:35.225Z,992.40
2023-04-12T08:22:35.210Z,992.42
2023-04-12T08:23:35.210Z,992.42
2023-04-12T08:24:35.197Z,992.42
2023-04-12T08:25:35.180Z,992.38
2023-04-12T08:26:35.179Z,992.40
2023-04-12T08:27:35.163Z,992.42
2023-04-12T08:28:36.823Z,992.39
2023-04-12T08:29:35.146Z,992.33
2023-04-12T08:30:35.146Z,992.29
2023-04-12T08:31:35.139Z,992.16
2023-04-12T08:32:35.153Z,992.07
2023-04-12T08:33:35.089Z,992.07
2023-04-12T08:34:35.086Z,992.09
2023-04-12T08:35:35.110Z,992.06
2023-04-12T08:36:35.051Z,992.05
2023-04-12T08:37:35.092Z,992.03
2023-04-12T08:38:44.875Z,992.05
2023-04-12T08:39:36.022Z,992.04
2023-04-12T08:40:35.076Z,992.06
2023-04-12T08:41:37.046Z,992.03
2023-04-12T08:42:35.075Z,992.06
2023-04-12T08:43:35.052Z,992.07
2023-04-12T08:44:34.999Z,992.10
2023-04-12T08:45:34.967Z,992.11
2023-04-12T08:46:35.116Z,992.16
2023-04-12T08:47:35.029Z,992.10
2023-04-12T08:48:35.130Z,992.10
2023-04-12T08:49:34.922Z,992.13
2023-04-12T08:50:34.929Z,992.14
2023-04-12T08:51:35.014Z,992.12
2023-04-12T08:52:34.935Z,992.13
2023-04-12T08:53:34.894Z,992.18
2023-04-12T08:54:34.865Z,992.18
2023-04-12T08:55:34.876Z,992.14
2023-04-12T08:56:34.876Z,992.17
2023-04-12T08:57:34.814Z,992.12
2023-04-12T08:58:35.002Z,992.14
2023-04-12T08:59:34.796Z,992.11
2023-04-12T09:00:34.805Z,992.10
2023-04-12T09:01:34.783Z,992.07
2023-04-12T09:02:35.025Z,992.02
2023-04-12T09:03:34.943Z,991.96
2023-04-12T09:04:34.898Z,991.96
2023-04-12T09:05:34.743Z,991.89
2023-04-12T09:06:34.718Z,991.89
2023-04-12T09:07:34.856Z,991.88
2023-04-12T09:08:34.713Z,991.85
2023-04-12T09:09:34.775Z,991.86
2023-04-12T09:10:34.704Z,991.77
2023-04-12T09:11:34.685Z,991.76
2023-04-12T09:12:34.654Z,991.81
2023-04-12T09:13:34.869Z,991.80
2023-04-12T09:14:34.644Z,991.86
2023-04-12T09:15:34.627Z,991.85
2023-04-12T09:16:34.634Z,991.92
2023-04-12T09:17:34.657Z,991.90
2023-04-12T09:18:34.593Z,991.82
2023-04-12T09:19:34.652Z,991.82
2023-04-12T09:20:34.584Z,991.81
2023-04-12T09:21:34.659Z,991.74
2023-04-12T09:22:34.568Z,991.73
2023-04-12T09:23:34.546Z,991.70
2023-04-12T09:24:34.515Z,991.73
2023-04-12T09:25:34.537Z,991.70
2023-04-12T09:26:34.495Z,991.66
2023-04-12T09:27:34.489Z,991.68
2023-04-12T09:28:34.526Z,991.61
2023-04-12T09:29:34.491Z,991.61
2023-04-12T09:30:34.449Z,991.58
2023-04-12T09:31:34.490Z,991.60
2023-04-12T09:32:34.476Z,991.56
2023-04-12T09:33:34.431Z,991.64
2023-04-12T09:34:34.424Z,991.65
2023-04-12T09:35:34.430Z,991.67
2023-04-12T09:36:34.386Z,991.73
2023-04-12T09:37:34.373Z,991.77
2023-04-12T09:38:34.421Z,991.68
2023-04-12T09:39:34.502Z,991.66
2023-04-12T09:40:34.353Z,991.68
2023-04-12T09:41:34.335Z,991.67
2023-04-12T09:42:34.931Z,991.62
2023-04-12T09:43:34.319Z,991.66
2023-04-12T09:44:34.379Z,991.71
2023-04-12T09:45:34.305Z,991.69
2023-04-12T09:46:34.327Z,991.70
2023-04-12T09:47:34.270Z,991.69
2023-04-12T09:48:34.290Z,991.68
2023-04-12T09:49:34.253Z,991.71
2023-04-12T09:50:34.260Z,991.70
2023-04-12T09:51:34.272Z,991.70
2023-04-12T09:52:34.218Z,991.70
2023-04-12T09:53:34.212Z,991.72
2023-04-12T09:54:34.175Z,991.68
2023-04-12T09:55:34.181Z,991.68
2023-04-12T09:56:34.240Z,991.70
2023-04-12T09:57:34.147Z,991.64
2023-04-12T09:58:34.184Z,991.65
2023-04-12T09:59:34.133Z,991.65
2023-04-12T10:00:34.354Z,991.60
2023-04-12T10:01:34.187Z,991.53
2023-04-12T10:02:34.266Z,991.55
2023-04-12T10:03:34.289Z,991.52
2023-04-12T10:04:34.279Z,991.53
2023-04-12T10:05:34.105Z,991.50
2023-04-12T10:06:34.105Z,991.46
2023-04-12T10:07:34.059Z,991.41
2023-04-12T10:08:34.034Z,991.41
2023-04-12T10:09:34.028Z,991.34
2023-04-12T10:10:34.027Z,991.36
2023-04-12T10:11:34.125Z,991.42
2023-04-12T10:12:34.002Z,991.39
2023-04-12T10:13:34.016Z,991.40
2023-04-12T10:14:33.978Z,991.41
2023-04-12T10:15:33.954Z,991.36
2023-04-12T10:16:34.059Z,991.34
2023-04-12T10:17:33.972Z,991.28
2023-04-12T10:18:33.947Z,991.30
2023-04-12T10:19:34.006Z,991.31
2023-04-12T10:20:33.904Z,991.25
2023-04-12T10:21:33.950Z,991.23
2023-04-12T10:22:33.905Z,991.25
2023-04-12T10:23:33.895Z,991.33
2023-04-12T10:24:33.851Z,991.28
2023-04-12T10:25:33.885Z,991.21
2023-04-12T10:26:33.846Z,991.20
2023-04-12T10:27:33.814Z,991.36
2023-04-12T10:28:33.832Z,991.33
2023-04-12T10:29:33.804Z,991.31
2023-04-12T10:30:33.805Z,991.28
2023-04-12T10:31:33.809Z,991.17
2023-04-12T10:32:35.423Z,991.16
2023-04-12T10:33:33.766Z,991.05
2023-04-12T10:34:33.755Z,991.07
2023-04-12T10:35:33.755Z,991.23
2023-04-12T10:36:33.749Z,991.19
2023-04-12T10:37:33.741Z,990.97
2023-04-12T10:38:35.970Z,990.95
2023-04-12T10:39:33.708Z,990.92
2023-04-12T10:40:33.709Z,990.88
2023-04-12T10:41:33.676Z,991.18
2023-04-12T10:42:33.688Z,991.02
2023-04-12T10:43:33.680Z,990.94
2023-04-12T10:44:33.718Z,991.20
2023-04-12T10:45:33.628Z,990.85
2023-04-12T10:46:33.661Z,991.12
2023-04-12T10:47:33.632Z,991.09
2023-04-12T10:48:33.677Z,990.72
2023-04-12T10:49:33.607Z,990.67
2023-04-12T10:50:33.615Z,990.69
2023-04-12T10:51:33.556Z,990.69
2023-04-12T10:52:33.560Z,990.68
2023-04-12T10:53:33.555Z,990.76
2023-04-12T10:54:33.544Z,990.82
2023-04-12T10:55:33.541Z,990.92
2023-04-12T10:56:33.570Z,991.07
2023-04-12T10:57:33.556Z,991.13
2023-04-12T10:58:33.534Z,991.15
2023-04-12T10:59:47.027Z,991.14
2023-04-12T11:00:34.548Z,991.13
2023-04-12T11:01:35.194Z,991.10
2023-04-12T11:02:33.640Z,991.15
2023-04-12T11:03:33.546Z,991.18
2023-04-12T11:04:33.530Z,991.23
2023-04-12T11:05:33.562Z,991.23
2023-04-12T11:06:33.406Z,991.24
2023-04-12T11:07:33.449Z,991.37
2023-04-12T11:08:33.468Z,991.36
2023-04-12T11:09:33.377Z,991.41
2023-04-12T11:10:33.610Z,991.36
2023-04-12T11:11:33.336Z,991.35
2023-04-12T11:12:33.549Z,991.43
2023-04-12T11:13:33.469Z,991.48
2023-04-12T11:14:33.326Z,991.49
2023-04-12T11:15:33.325Z,991.57
2023-04-12T11:16:33.354Z,991.57
2023-04-12T11:17:34.942Z,991.61
2023-04-12T11:18:33.361Z,991.67
2023-04-12T11:19:33.258Z,991.68
2023-04-12T11:20:33.245Z,991.65
2023-04-12T11:21:33.257Z,991.59
2023-04-12T11:22:33.303Z,991.54
2023-04-12T11:23:33.249Z,991.58
2023-04-12T11:24:33.195Z,991.51
2023-04-12T11:25:33.204Z,991.54
2023-04-12T11:26:33.176Z,991.54
2023-04-12T11:27:33.166Z,991.64
2023-04-12T11:28:35.271Z,991.58
2023-04-12T11:29:33.135Z,991.41
2023-04-12T11:30:33.120Z,991.68
2023-04-12T11:31:33.198Z,991.68
2023-04-12T11:32:33.149Z,991.81
2023-04-12T11:33:33.105Z,991.54
2023-04-12T11:34:33.086Z,991.50
2023-04-12T11:35:33.071Z,991.52
2023-04-12T11:36:33.063Z,991.54
2023-04-12T11:37:33.057Z,991.54
2023-04-12T11:38:33.056Z,991.67
2023-04-12T11:39:33.443Z,991.43
2023-04-12T11:40:33.118Z,991.41
2023-04-12T11:41:32.999Z,991.40
2023-04-12T11:42:33.010Z,991.43
2023-04-12T11:43:33.202Z,991.44
2023-04-12T11:44:47.940Z,991.43
2023-04-12T11:45:33.964Z,991.46
2023-04-12T11:46:33.014Z,991.50
2023-04-12T11:47:32.996Z,991.52
2023-04-12T11:48:32.931Z,991.50
2023-04-12T11:49:32.933Z,991.51
2023-04-12T11:50:32.923Z,991.53
2023-04-12T11:51:32.911Z,991.55
2023-04-12T11:52:32.902Z,991.53
2023-04-12T11:53:32.918Z,991.53
2023-04-12T11:54:32.861Z,991.54
2023-04-12T11:55:32.855Z,991.51
2023-04-12T11:56:32.890Z,991.53
2023-04-12T11:57:32.868Z,991.57
2023-04-12T11:58:32.822Z,991.62
2023-04-12T11:59:32.811Z,991.60
2023-04-12T12:00:32.795Z,991.61
2023-04-12T12:01:32.824Z,991.62
2023-04-12T12:02:38.372Z,991.64
2023-04-12T12:03:33.906Z,991.58
2023-04-12T12:04:33.130Z,991.62
2023-04-12T12:05:33.243Z,991.62
2023-04-12T12:06:32.872Z,991.62
2023-04-12T12:07:33.097Z,991.58
2023-04-12T12:08:32.787Z,991.56
2023-04-12T12:09:32.713Z,991.54
2023-04-12T12:10:46.430Z,991.49
2023-04-12T12:11:33.675Z,991.49
2023-04-12T12:12:32.663Z,991.53
2023-04-12T12:13:32.758Z,991.52
2023-04-12T12:14:32.649Z,991.51
2023-04-12T12:15:32.649Z,991.69
2023-04-12T12:16:32.695Z,991.56
2023-04-12T12:17:32.653Z,991.50
2023-04-12T12:18:32.610Z,991.50
2023-04-12T12:19:32.687Z,991.46
2023-04-12T12:20:32.593Z,991.45
2023-04-12T12:21:32.612Z,991.45
2023-04-12T12:22:32.556Z,991.47
2023-04-12T12:23:32.571Z,991.42
2023-04-12T12:24:32.538Z,991.44
2023-04-12T12:25:32.556Z,991.47
2023-04-12T12:26:32.510Z,991.46